createdAt,value
2019-03-20T00:00:51.000Z,84.30
2019-03-20T00:03:20.525Z,84.50
2019-03-20T00:05:48.586Z,84.60
2019-03-20T00:08:16.622Z,84.70
2019-03-20T00:10:44.554Z,85.00
2019-03-20T00:13:12.561Z,85.10
2019-03-20T00:15:40.560Z,85.00
2019-03-20T00:18:08.600Z,85.00
2019-03-20T00:20:36.549Z,85.10
2019-03-20T00:23:04.535Z,85.10
2019-03-20T00:25:32.542Z,85.20
2019-03-20T00:28:00.585Z,85.00
2019-03-20T00:30:28.442Z,85.00
2019-03-20T00:32:56.364Z,84.80
2019-03-20T00:35:24.259Z,84.70
2019-03-20T00:37:52.079Z,84.70
2019-03-20T00:40:19.947Z,84.70
2019-03-20T00:42:47.842Z,84.50
2019-03-20T00:45:20.235Z,84.50
2019-03-20T00:47:48.075Z,84.50
2019-03-20T00:50:16.301Z,84.40
2019-03-20T00:52:44.265Z,84.60
2019-03-20T00:55:21.115Z,84.80
2019-03-20T00:57:48.941Z,84.70
2019-03-20T01:00:20.404Z,85.50
2019-03-20T01:02:48.287Z,84.70
2019-03-20T01:05:16.303Z,84.90
2019-03-20T01:07:44.247Z,85.00
2019-03-20T01:10:13.793Z,85.00
2019-03-20T01:12:41.679Z,84.90
2019-03-20T01:15:09.705Z,84.80
2019-03-20T01:17:37.641Z,85.60
2019-03-20T01:20:07.299Z,84.90
2019-03-20T01:22:35.115Z,85.00
2019-03-20T01:25:05.171Z,85.10
2019-03-20T01:27:33.390Z,85.20
2019-03-20T01:30:01.329Z,85.30
2019-03-20T01:32:29.306Z,85.40
2019-03-20T01:34:57.201Z,85.90
2019-03-20T01:37:25.005Z,86.30
2019-03-20T01:39:52.857Z,86.00
2019-03-20T01:42:20.742Z,86.10
2019-03-20T01:44:48.814Z,86.20
2019-03-20T01:47:16.695Z,86.00
2019-03-20T01:49:44.700Z,86.20
2019-03-20T01:52:12.697Z,87.10
2019-03-20T01:54:40.776Z,86.20
2019-03-20T01:57:08.739Z,86.30
2019-03-20T01:59:36.802Z,86.30
2019-03-20T02:02:06.162Z,86.30
2019-03-20T02:04:34.100Z,86.50
2019-03-20T02:07:01.984Z,86.50
2019-03-20T02:09:30.021Z,86.40
2019-03-20T02:11:57.898Z,86.50
2019-03-20T02:14:25.840Z,86.30
2019-03-20T02:16:53.847Z,86.30
2019-03-20T02:19:21.737Z,86.40
2019-03-20T02:21:49.685Z,86.50
2019-03-20T02:24:19.140Z,86.50
2019-03-20T02:26:47.144Z,86.70
2019-03-20T02:29:15.062Z,86.70
2019-03-20T02:31:42.905Z,86.70
2019-03-20T02:34:10.794Z,86.70
2019-03-20T02:36:38.738Z,86.70
2019-03-20T02:39:07.101Z,86.70
2019-03-20T02:41:35.141Z,86.70
2019-03-20T02:44:03.075Z,86.90
2019-03-20T02:46:31.068Z,86.70
2019-03-20T02:49:01.741Z,86.60
2019-03-20T02:51:30.992Z,86.60
2019-03-20T02:53:58.832Z,86.70
2019-03-20T02:56:26.783Z,86.70
2019-03-20T02:58:54.780Z,86.90
2019-03-20T03:01:22.804Z,87.00
2019-03-20T03:03:51.556Z,87.10
2019-03-20T03:06:19.523Z,87.30
2019-03-20T03:08:47.513Z,87.40
2019-03-20T03:11:15.491Z,87.50
2019-03-20T03:13:43.496Z,87.60
2019-03-20T03:16:11.337Z,87.80
2019-03-20T03:18:39.176Z,87.80
2019-03-20T03:21:06.997Z,87.80
2019-03-20T03:23:34.881Z,88.00
2019-03-20T03:26:02.945Z,88.20
2019-03-20T03:28:30.885Z,88.40
2019-03-20T03:30:59.372Z,88.40
2019-03-20T03:33:27.622Z,88.40
2019-03-20T03:35:55.563Z,88.40
2019-03-20T03:38:24.621Z,88.50
2019-03-20T03:40:52.583Z,88.60
2019-03-20T03:43:23.948Z,88.90
2019-03-20T03:45:50.058Z,88.90
2019-03-20T03:48:18.148Z,89.00
2019-03-20T03:50:48.542Z,89.00
2019-03-20T03:53:16.729Z,89.00
2019-03-20T03:55:44.622Z,89.10
2019-03-20T03:58:12.568Z,89.10
2019-03-20T04:00:40.668Z,89.00
2019-03-20T04:03:08.544Z,89.00
2019-03-20T04:05:36.558Z,89.40
2019-03-20T04:08:04.562Z,88.90
2019-03-20T04:10:32.625Z,88.70
2019-03-20T04:13:00.601Z,89.00
2019-03-20T04:15:28.692Z,88.80
2019-03-20T04:17:56.589Z,88.90
2019-03-20T04:20:24.412Z,88.90
2019-03-20T04:22:52.294Z,89.00
2019-03-20T04:25:20.228Z,89.30
2019-03-20T04:27:48.136Z,89.20
2019-03-20T04:30:16.637Z,89.20
2019-03-20T04:32:44.560Z,90.00
2019-03-20T04:35:12.614Z,89.40
2019-03-20T04:37:40.664Z,89.40
2019-03-20T04:40:09.689Z,89.40
2019-03-20T04:42:37.702Z,89.30
2019-03-20T04:45:06.999Z,89.50
2019-03-20T04:47:35.027Z,89.70
2019-03-20T04:50:03.596Z,89.60
2019-03-20T04:52:31.466Z,89.70
2019-03-20T04:54:59.403Z,89.50
2019-03-20T04:57:27.299Z,89.50
2019-03-20T04:59:55.123Z,89.50
2019-03-20T05:02:23.087Z,89.80
2019-03-20T05:04:51.099Z,89.80
2019-03-20T05:07:19.044Z,90.00
2019-03-20T05:09:47.083Z,90.00
2019-03-20T05:12:16.604Z,90.00
2019-03-20T05:14:44.417Z,90.00
2019-03-20T05:17:12.445Z,90.00
2019-03-20T05:19:40.436Z,90.00
2019-03-20T05:22:08.463Z,89.90
2019-03-20T05:24:36.445Z,89.80
2019-03-20T05:27:04.479Z,89.70
2019-03-20T05:29:33.438Z,89.40
2019-03-20T05:32:04.500Z,88.90
2019-03-20T05:34:32.305Z,88.50
2019-03-20T05:37:09.825Z,88.50
2019-03-20T05:39:30.208Z,88.60
2019-03-20T05:41:58.060Z,88.70
2019-03-20T05:44:26.139Z,88.50
2019-03-20T05:46:54.190Z,88.30
2019-03-20T05:49:22.026Z,88.20
2019-03-20T05:51:51.221Z,88.20
2019-03-20T05:54:20.673Z,88.00
2019-03-20T05:56:48.637Z,88.00
2019-03-20T05:59:18.454Z,87.80
2019-03-20T06:01:46.527Z,88.30
2019-03-20T06:04:14.520Z,88.20
2019-03-20T06:06:42.447Z,87.00
2019-03-20T06:09:10.675Z,86.80
2019-03-20T06:11:40.540Z,86.60
2019-03-20T06:14:12.019Z,86.50
2019-03-20T06:16:39.973Z,86.30
2019-03-20T06:19:08.166Z,86.00
2019-03-20T06:21:36.302Z,85.80
2019-03-20T06:24:04.273Z,85.60
2019-03-20T06:26:32.605Z,85.40
2019-03-20T06:29:00.771Z,85.40
2019-03-20T06:31:28.706Z,85.30
2019-03-20T06:33:56.697Z,85.20
2019-03-20T06:36:24.699Z,84.40
2019-03-20T06:38:53.093Z,85.00
2019-03-20T06:41:21.332Z,84.70
2019-03-20T06:43:52.395Z,84.50
2019-03-20T06:46:21.110Z,84.30
2019-03-20T06:48:49.299Z,84.20
2019-03-20T06:51:21.680Z,84.10
2019-03-20T06:53:51.084Z,83.90
2019-03-20T06:56:23.822Z,83.80
2019-03-20T06:58:56.741Z,83.60
2019-03-20T07:01:28.117Z,83.20
2019-03-20T07:04:05.049Z,83.00
2019-03-20T07:06:39.682Z,82.70
2019-03-20T07:09:10.423Z,82.40
2019-03-20T07:11:40.729Z,82.20
2019-03-20T07:14:08.852Z,81.90
2019-03-20T07:16:39.087Z,81.90
2019-03-20T07:19:10.411Z,81.80
2019-03-20T07:21:41.815Z,81.40
2019-03-20T07:24:11.637Z,81.30
2019-03-20T07:26:40.490Z,80.90
2019-03-20T07:29:08.559Z,80.70
2019-03-20T07:31:37.935Z,80.60
2019-03-20T07:34:06.691Z,80.70
2019-03-20T07:36:35.274Z,81.10
2019-03-20T07:39:04.862Z,80.40
2019-03-20T07:41:33.350Z,80.20
2019-03-20T07:44:01.605Z,80.00
2019-03-20T07:46:31.517Z,80.40
2019-03-20T07:49:02.519Z,79.30
2019-03-20T07:51:30.974Z,78.90
2019-03-20T07:54:01.873Z,78.80
2019-03-20T07:56:31.421Z,78.50
2019-03-20T07:58:59.918Z,78.60
2019-03-20T08:01:29.927Z,78.60
2019-03-20T08:04:01.962Z,78.40
2019-03-20T08:06:30.581Z,78.10
2019-03-20T08:08:58.876Z,77.60
2019-03-20T08:11:27.486Z,77.30
2019-03-20T08:13:57.805Z,76.90
2019-03-20T08:16:26.570Z,76.70
2019-03-20T08:18:56.271Z,76.50
2019-03-20T08:21:26.455Z,76.40
2019-03-20T08:23:54.756Z,76.40
2019-03-20T08:26:22.959Z,76.00
2019-03-20T08:28:51.077Z,75.90
2019-03-20T08:31:19.231Z,75.80
2019-03-20T08:33:47.399Z,75.50
2019-03-20T08:36:15.981Z,75.40
2019-03-20T08:38:44.502Z,75.20
2019-03-20T08:41:12.953Z,74.90
2019-03-20T08:43:41.614Z,74.30
2019-03-20T08:46:09.815Z,73.70
2019-03-20T08:48:39.730Z,73.70
2019-03-20T08:51:08.064Z,73.00
2019-03-20T08:53:36.804Z,72.30
2019-03-20T08:56:09.536Z,72.20
2019-03-20T08:58:37.740Z,72.00
2019-03-20T09:01:06.037Z,71.30
2019-03-20T09:03:35.806Z,71.20
2019-03-20T09:06:03.981Z,69.50
2019-03-20T09:08:34.000Z,68.70
2019-03-20T09:11:02.920Z,67.30
2019-03-20T09:13:30.879Z,65.90
2019-03-20T09:15:59.385Z,64.30
2019-03-20T09:18:27.355Z,62.80
2019-03-20T09:20:55.419Z,63.20
2019-03-20T09:23:25.296Z,63.10
2019-03-20T09:25:53.995Z,62.20
2019-03-20T09:28:23.079Z,58.90
2019-03-20T09:30:51.873Z,57.40
2019-03-20T09:33:20.490Z,56.30
2019-03-20T09:35:49.415Z,56.50
2019-03-20T09:38:18.280Z,56.80
2019-03-20T09:40:47.063Z,55.80
2019-03-20T09:43:16.054Z,54.60
2019-03-20T09:45:46.111Z,50.00
2019-03-20T09:48:14.996Z,40.30
2019-03-20T09:50:44.526Z,33.20
2019-03-20T09:53:13.455Z,27.50
2019-03-20T09:55:42.046Z,22.30
2019-03-20T09:58:11.794Z,19.20
2019-03-20T10:00:45.765Z,17.90
2019-03-20T10:03:16.348Z,16.80
2019-03-20T10:05:46.835Z,16.40
2019-03-20T10:08:21.764Z,14.90
2019-03-20T10:10:52.161Z,14.90
2019-03-20T10:13:20.949Z,14.50
2019-03-20T10:15:49.623Z,12.90
2019-03-20T10:18:18.698Z,12.90
2019-03-20T10:20:48.087Z,12.70
2019-03-20T10:23:17.751Z,12.30
2019-03-20T10:25:53.663Z,12.50
2019-03-20T10:28:24.132Z,12.10
2019-03-20T10:30:52.905Z,11.50
2019-03-20T10:33:23.390Z,11.20
2019-03-20T10:35:52.540Z,12.10
2019-03-20T10:38:21.662Z,11.70
2019-03-20T10:40:51.052Z,11.00
2019-03-20T10:43:20.276Z,11.00
2019-03-20T10:45:49.077Z,10.70
2019-03-20T10:48:18.091Z,10.90
2019-03-20T10:50:47.893Z,11.20
2019-03-20T10:53:16.911Z,10.50
2019-03-20T10:55:47.291Z,10.80
2019-03-20T10:58:16.344Z,10.90
2019-03-20T11:00:45.128Z,11.60
2019-03-20T11:03:14.024Z,12.00
2019-03-20T11:05:42.784Z,12.00
2019-03-20T11:08:13.123Z,11.90
2019-03-20T11:10:42.393Z,12.00
2019-03-20T11:13:13.617Z,12.90
2019-03-20T11:15:42.740Z,12.50
2019-03-20T11:18:12.209Z,13.10
2019-03-20T11:21:47.241Z,13.10
2019-03-20T11:24:15.990Z,13.00
2019-03-20T11:26:44.995Z,13.90
2019-03-20T11:29:14.040Z,14.70
2019-03-20T11:31:42.975Z,15.30
2019-03-20T11:34:11.941Z,16.60
2019-03-20T11:36:40.996Z,17.90
2019-03-20T11:39:09.474Z,19.20
2019-03-20T11:41:37.900Z,21.60
2019-03-20T11:44:06.214Z,23.80
2019-03-20T11:46:34.454Z,26.00
2019-03-20T11:49:02.634Z,27.60
2019-03-20T11:51:32.224Z,29.10
2019-03-20T11:54:03.556Z,31.30
2019-03-20T11:56:34.946Z,33.30
2019-03-20T11:59:03.081Z,34.40
2019-03-20T12:01:31.222Z,35.50
2019-03-20T12:03:59.271Z,36.10
2019-03-20T12:06:27.425Z,36.20
2019-03-20T12:08:55.585Z,36.90
2019-03-20T12:11:25.482Z,37.60
2019-03-20T12:13:53.653Z,38.90
2019-03-20T12:16:25.043Z,40.00
2019-03-20T12:18:54.723Z,39.50
2019-03-20T12:21:23.243Z,40.20
2019-03-20T12:23:51.386Z,40.10
2019-03-20T12:26:19.317Z,40.40
2019-03-20T12:28:47.555Z,40.60
2019-03-20T12:31:16.327Z,40.20
2019-03-20T12:33:44.519Z,39.70
2019-03-20T12:36:13.841Z,39.00
2019-03-20T12:38:41.846Z,39.10
2019-03-20T12:41:09.803Z,39.50
2019-03-20T12:43:38.069Z,39.50
2019-03-20T12:46:06.591Z,39.40
2019-03-20T12:48:34.663Z,39.00
2019-03-20T12:51:02.954Z,39.00
2019-03-20T12:53:34.140Z,38.20
2019-03-20T12:56:03.760Z,38.00
2019-03-20T12:58:33.928Z,38.60
2019-03-20T13:01:01.893Z,37.50
2019-03-20T13:03:33.725Z,38.40
2019-03-20T13:06:04.282Z,38.40
2019-03-20T13:08:32.477Z,38.80
2019-03-20T13:11:00.488Z,38.70
2019-03-20T13:13:28.559Z,38.70
2019-03-20T13:15:56.751Z,38.70
2019-03-20T13:18:25.057Z,38.20
2019-03-20T13:20:53.450Z,37.90
2019-03-20T13:23:28.753Z,37.30
2019-03-20T13:25:56.709Z,36.10
2019-03-20T13:28:25.114Z,36.20
2019-03-20T13:31:00.515Z,36.30
2019-03-20T13:33:28.774Z,36.30
2019-03-20T13:35:56.762Z,36.50
2019-03-20T13:38:25.085Z,36.80
2019-03-20T13:40:53.053Z,36.70
2019-03-20T13:43:21.319Z,36.60
2019-03-20T13:45:49.578Z,37.00
2019-03-20T13:48:17.599Z,37.50
2019-03-20T13:50:45.991Z,37.70
2019-03-20T13:53:16.336Z,37.70
2019-03-20T13:55:44.630Z,36.90
2019-03-20T13:58:12.864Z,36.60
2019-03-20T14:00:41.485Z,36.70
2019-03-20T14:03:09.846Z,36.40
2019-03-20T14:05:38.199Z,35.90
2019-03-20T14:08:06.330Z,35.70
2019-03-20T14:10:41.996Z,35.80
2019-03-20T14:13:05.533Z,35.60
2019-03-20T14:15:33.857Z,35.70
2019-03-20T14:18:02.061Z,36.10
2019-03-20T14:20:30.722Z,36.30
2019-03-20T14:22:59.091Z,36.50
2019-03-20T14:25:27.413Z,36.40
2019-03-20T14:28:00.533Z,36.20
2019-03-20T14:30:32.233Z,36.50
2019-03-20T14:33:00.396Z,36.80
2019-03-20T14:35:28.836Z,37.00
2019-03-20T14:37:57.109Z,36.60
2019-03-20T14:40:37.311Z,35.60
2019-03-20T14:43:07.971Z,35.30
2019-03-20T14:45:37.835Z,34.40
2019-03-20T14:48:09.903Z,34.70
2019-03-20T14:50:39.727Z,34.70
2019-03-20T14:53:07.918Z,34.10
2019-03-20T14:55:35.898Z,34.80
2019-03-20T14:58:04.291Z,35.70
2019-03-20T15:00:32.461Z,35.30
2019-03-20T15:03:02.062Z,34.40
2019-03-20T15:05:30.211Z,34.90
2019-03-20T15:07:58.459Z,35.30
2019-03-20T15:10:29.259Z,35.70
2019-03-20T15:12:59.520Z,35.10
2019-03-20T15:15:30.451Z,35.90
2019-03-20T15:17:59.202Z,36.70
2019-03-20T15:20:28.795Z,36.90
2019-03-20T15:22:56.957Z,37.50
2019-03-20T15:25:27.871Z,37.80
2019-03-20T15:27:56.792Z,37.00
2019-03-20T15:30:29.593Z,36.60
2019-03-20T15:32:58.024Z,35.70
2019-03-20T15:35:26.378Z,35.40
2019-03-20T15:37:54.643Z,34.90
2019-03-20T15:40:24.440Z,34.80
2019-03-20T15:42:52.888Z,35.20
2019-03-20T15:45:21.375Z,35.20
2019-03-20T15:47:49.629Z,35.40
2019-03-20T15:50:19.247Z,35.60
2019-03-20T15:52:47.296Z,35.90
2019-03-20T15:55:25.895Z,36.20
2019-03-20T15:57:53.975Z,36.70
2019-03-20T16:00:22.621Z,37.30
2019-03-20T16:02:52.500Z,37.70
2019-03-20T16:05:20.505Z,38.00
2019-03-20T16:07:48.658Z,38.50
2019-03-20T16:10:17.821Z,38.90
2019-03-20T16:12:45.993Z,39.30
2019-03-20T16:15:15.727Z,39.50
2019-03-20T16:17:43.891Z,39.90
2019-03-20T16:20:12.417Z,40.50
2019-03-20T16:22:40.477Z,40.90
2019-03-20T16:25:10.313Z,41.40
2019-03-20T16:27:38.451Z,41.90
2019-03-20T16:30:08.315Z,42.40
2019-03-20T16:32:36.374Z,42.60
2019-03-20T16:35:04.994Z,43.00
2019-03-20T16:37:33.163Z,43.40
2019-03-20T16:40:01.332Z,43.80
2019-03-20T16:42:30.624Z,43.80
2019-03-20T16:44:58.679Z,44.30
2019-03-20T16:47:26.972Z,44.60
2019-03-20T16:49:55.228Z,44.70
2019-03-20T16:52:23.516Z,45.20
2019-03-20T16:54:51.705Z,45.50
2019-03-20T16:57:21.831Z,45.70
2019-03-20T16:59:49.423Z,46.10
2019-03-20T17:02:17.340Z,45.90
2019-03-20T17:04:45.571Z,46.20
2019-03-20T17:07:13.573Z,46.60
2019-03-20T17:09:41.528Z,46.80
2019-03-20T17:12:09.391Z,47.00
2019-03-20T17:14:38.982Z,47.10
2019-03-20T17:17:07.191Z,47.40
2019-03-20T17:19:35.410Z,47.50
2019-03-20T17:22:03.454Z,47.60
2019-03-20T17:24:31.430Z,47.60
2019-03-20T17:26:59.419Z,47.80
2019-03-20T17:29:27.634Z,47.60
2019-03-20T17:31:55.740Z,47.70
2019-03-20T17:34:23.755Z,47.60
2019-03-20T17:36:52.033Z,47.50
2019-03-20T17:39:20.026Z,47.20
2019-03-20T17:41:47.965Z,47.40
2019-03-20T17:44:16.035Z,47.40
2019-03-20T17:46:44.090Z,47.20
2019-03-20T17:49:12.337Z,47.40
2019-03-20T17:51:40.365Z,47.20
2019-03-20T17:54:08.259Z,47.20
2019-03-20T17:56:36.217Z,47.50
2019-03-20T17:59:04.189Z,47.60
2019-03-20T18:01:32.460Z,47.80
2019-03-20T18:04:00.606Z,48.10
2019-03-20T18:06:28.854Z,48.30
2019-03-20T18:08:56.698Z,48.60
2019-03-20T18:11:24.765Z,48.90
2019-03-20T18:13:52.878Z,49.00
2019-03-20T18:16:22.426Z,49.10
2019-03-20T18:18:51.276Z,49.10
2019-03-20T18:21:20.693Z,49.20
2019-03-20T18:23:48.646Z,49.10
2019-03-20T18:26:17.766Z,48.90
2019-03-20T18:28:48.060Z,48.90
2019-03-20T18:31:19.429Z,48.70
2019-03-20T18:33:47.443Z,48.50
2019-03-20T18:36:15.992Z,48.50
2019-03-20T18:38:44.022Z,48.40
2019-03-20T18:41:12.263Z,48.20
2019-03-20T18:43:40.310Z,48.00
2019-03-20T18:46:08.390Z,47.90
2019-03-20T18:48:36.351Z,47.70
2019-03-20T18:51:04.311Z,47.60
2019-03-20T18:53:32.389Z,47.40
2019-03-20T18:56:00.488Z,47.20
2019-03-20T18:58:28.470Z,47.30
2019-03-20T19:00:56.590Z,47.30
2019-03-20T19:03:26.133Z,47.50
2019-03-20T19:06:02.293Z,47.60
2019-03-20T19:08:30.519Z,47.60
2019-03-20T19:10:58.653Z,47.50
2019-03-20T19:13:26.658Z,47.60
2019-03-20T19:15:54.890Z,47.70
2019-03-20T19:18:22.958Z,47.70
2019-03-20T19:20:51.401Z,47.80
2019-03-20T19:23:19.490Z,48.00
2019-03-20T19:25:47.911Z,48.00
2019-03-20T19:28:16.105Z,48.10
2019-03-20T19:30:44.256Z,48.10
2019-03-20T19:33:12.505Z,48.10
2019-03-20T19:35:40.703Z,48.30
2019-03-20T19:38:08.621Z,48.50
2019-03-20T19:40:36.657Z,48.60
2019-03-20T19:43:04.530Z,48.70
2019-03-20T19:45:32.438Z,49.00
2019-03-20T19:48:00.259Z,49.20
2019-03-20T19:50:28.262Z,49.50
2019-03-20T19:52:56.343Z,49.80
2019-03-20T19:55:24.467Z,50.00
2019-03-20T19:57:52.630Z,50.30
2019-03-20T20:00:24.110Z,50.30
2019-03-20T20:02:52.432Z,50.50
2019-03-20T20:05:20.463Z,50.80
2019-03-20T20:07:49.732Z,51.00
2019-03-20T20:10:18.300Z,51.00
2019-03-20T20:12:46.492Z,51.30
2019-03-20T20:15:21.982Z,51.40
2019-03-20T20:17:49.980Z,51.50
2019-03-20T20:20:19.136Z,51.60
2019-03-20T20:22:47.770Z,51.70
2019-03-20T20:25:15.889Z,51.80
2019-03-20T20:27:44.059Z,51.80
2019-03-20T20:30:16.032Z,51.90
2019-03-20T20:32:45.781Z,51.90
2019-03-20T20:35:15.384Z,52.00
2019-03-20T20:37:43.929Z,52.10
2019-03-20T20:40:15.154Z,52.20
2019-03-20T20:42:43.500Z,52.30
2019-03-20T20:45:13.219Z,52.40
2019-03-20T20:47:43.739Z,52.60
2019-03-20T20:50:19.444Z,52.60
2019-03-20T20:52:44.055Z,52.80
2019-03-20T20:55:13.730Z,52.90
2019-03-20T20:57:42.243Z,52.90
2019-03-20T21:00:19.015Z,52.40
2019-03-20T21:02:47.980Z,53.10
2019-03-20T21:05:15.795Z,53.10
2019-03-20T21:07:45.736Z,53.30
2019-03-20T21:10:24.568Z,54.00
2019-03-20T21:12:56.926Z,53.40
2019-03-20T21:15:29.735Z,53.50
2019-03-20T21:18:03.182Z,53.60
2019-03-20T21:20:31.078Z,53.60
2019-03-20T21:23:17.152Z,53.70
2019-03-20T21:25:45.201Z,53.80
2019-03-20T21:28:23.520Z,54.60
2019-03-20T21:30:53.170Z,54.00
2019-03-20T21:33:28.559Z,54.00
2019-03-20T21:36:09.673Z,54.10
2019-03-20T21:38:37.679Z,54.20
2019-03-20T21:41:19.015Z,54.20
2019-03-20T21:44:06.065Z,54.30
2019-03-20T21:46:41.326Z,54.40
2019-03-20T21:49:09.398Z,54.30
2019-03-20T21:51:37.354Z,54.40
2019-03-20T21:54:12.921Z,54.40
2019-03-20T21:56:48.396Z,54.40
2019-03-20T21:59:27.514Z,54.50
2019-03-20T22:01:56.983Z,54.80
2019-03-20T22:04:24.761Z,54.80
2019-03-20T22:07:11.703Z,55.40
2019-03-20T22:09:54.000Z,54.90
2019-03-20T22:12:23.781Z,54.90
2019-03-20T22:14:53.748Z,55.10
2019-03-20T22:17:23.557Z,55.30
2019-03-20T22:19:56.037Z,54.70
2019-03-20T22:22:31.549Z,55.40
2019-03-20T22:25:10.619Z,56.10
2019-03-20T22:27:57.108Z,55.60
2019-03-20T22:30:25.494Z,55.60
2019-03-20T22:33:01.163Z,55.70
2019-03-20T22:35:42.448Z,55.80
2019-03-20T22:38:11.993Z,55.80
2019-03-20T22:40:59.734Z,55.90
2019-03-20T22:43:30.645Z,56.00
2019-03-20T22:46:16.712Z,56.20
2019-03-20T22:48:49.192Z,56.30
2019-03-20T22:51:18.680Z,56.40
2019-03-20T22:54:04.645Z,56.60
2019-03-20T22:56:36.952Z,56.70
2019-03-20T22:59:04.796Z,56.80
2019-03-20T23:01:37.361Z,56.90
2019-03-20T23:04:12.466Z,57.10
2019-03-20T23:06:40.567Z,57.20
2019-03-20T23:09:08.580Z,57.20
2019-03-20T23:11:36.445Z,57.30
2019-03-20T23:14:04.391Z,57.50
2019-03-20T23:16:32.389Z,57.50
2019-03-20T23:19:00.312Z,57.60
2019-03-20T23:21:28.396Z,57.60
2019-03-20T23:23:56.391Z,57.70
2019-03-20T23:26:24.214Z,57.70
2019-03-20T23:28:52.436Z,57.60
2019-03-20T23:31:21.444Z,57.70
2019-03-20T23:33:51.104Z,57.60
2019-03-20T23:36:20.612Z,57.60
2019-03-20T23:38:55.980Z,57.60
2019-03-20T23:41:23.906Z,57.70
2019-03-20T23:43:53.279Z,57.60
2019-03-20T23:46:21.567Z,57.50
2019-03-20T23:49:03.143Z,57.60
2019-03-20T23:51:32.094Z,57.60
2019-03-20T23:54:00.858Z,57.60
2019-03-20T23:56:30.154Z,57.70
2019-03-20T23:58:58.098Z,57.70
